»·PEaware :: N121JW KBFL-KMHV

N121JW :: KBFL-KMHV

FLIGHT INFORMATION

Flight Status: Arrived
Operator: Privately registered:
United States
More flights under this callsign
Pilot: Jason W. (17522)
Aircraft: CESSNA 172 SKYHAWK
(C172)
More flights by this aircraft type
Origin: KBFL Meadows
United States
Destination: KMHV Mojave
United States
More flights between these airports :: More routes between these airports
Route:
File this flight plan on PilotEdge
Remarks: CAT-6 rating
Altitude:
(Current/Filed)
7,500ft
Speed:
(Current/Filed)
110kts
Departed: 13-Mar-18 07:39 PM
Arrived: 13-Mar-18 08:24 PM
Distance/Time
Traveled:
50nm/0:45
Distance/Time
To Go:
Arrived

Flight Plot

Page will automatically refresh every two minutes.


Map Options




Map Legend


Flown Route
Filed Route
Departure Airport
Arrival Airport
Navaid (VOR, NDB)
Fix

Horizontal Profiles

Position Reports

Time Latitude Longitude Heading Altitude Ground
Speed
13-Mar-18 19:31 35.426192 -119.042681 179 484ft 0kts
13-Mar-18 19:32 35.426192 -119.042681 179 484ft 0kts
13-Mar-18 19:33 35.426192 -119.042681 179 484ft 0kts
13-Mar-18 19:34 35.426192 -119.042681 179 484ft 0kts
13-Mar-18 19:35 35.425643 -119.043590 279 482ft 4kts
13-Mar-18 19:36 35.425462 -119.044801 289 478ft 0kts
13-Mar-18 19:37 35.425587 -119.045819 283 477ft 15kts
13-Mar-18 19:38 35.430259 -119.051898 311 484ft 52kts
13-Mar-18 19:39 35.446968 -119.068337 320 1404ft 79kts
13-Mar-18 19:40 35.461101 -119.054357 106 2354ft 85kts
13-Mar-18 19:41 35.457146 -119.025668 88 3179ft 85kts
13-Mar-18 19:42 35.442519 -119.005716 120 4098ft 82kts
13-Mar-18 19:43 35.431808 -118.981891 118 4958ft 81kts
13-Mar-18 19:44 35.421307 -118.958255 117 5765ft 80kts
13-Mar-18 19:45 35.410945 -118.934746 117 6529ft 79kts
13-Mar-18 19:46 35.400471 -118.910971 117 7300ft 81kts
13-Mar-18 19:47 35.387301 -118.881620 118 7501ft 117kts
13-Mar-18 19:48 35.371093 -118.845621 118 7500ft 123kts
13-Mar-18 19:49 35.354593 -118.808639 118 7499ft 123kts
13-Mar-18 19:50 35.338336 -118.772124 118 7499ft 122kts
13-Mar-18 19:51 35.322834 -118.737430 118 7499ft 116kts
13-Mar-18 19:52 35.307533 -118.703177 118 7499ft 116kts
13-Mar-18 19:53 35.292254 -118.669016 118 7500ft 116kts
13-Mar-18 19:54 35.277123 -118.635166 118 7499ft 116kts
13-Mar-18 19:55 35.261762 -118.600947 119 7499ft 116kts
13-Mar-18 19:56 35.246508 -118.567116 118 7499ft 116kts
13-Mar-18 19:57 35.231361 -118.532846 118 7499ft 116kts
13-Mar-18 19:58 35.216121 -118.498816 118 7499ft 116kts
13-Mar-18 19:59 35.210663 -118.486717 118 7499ft 116kts
13-Mar-18 20:00 35.205421 -118.475020 118 7488ft 116kts
13-Mar-18 20:01 35.200208 -118.463469 118 7315ft 111kts
13-Mar-18 20:02 35.195236 -118.452441 118 7146ft 109kts
13-Mar-18 20:03 35.191038 -118.443114 118 7001ft 108kts
13-Mar-18 20:04 35.186895 -118.433906 118 6857ft 107kts
13-Mar-18 20:05 35.183093 -118.425455 118 6725ft 107kts
13-Mar-18 20:06 35.178697 -118.415683 118 6572ft 107kts
13-Mar-18 20:07 35.174109 -118.405489 118 6411ft 106kts
13-Mar-18 20:08 35.169559 -118.395383 118 6250ft 105kts
13-Mar-18 20:09 35.166089 -118.387676 118 6127ft 105kts
13-Mar-18 20:10 35.162343 -118.379356 118 5993ft 105kts
13-Mar-18 20:11 35.158451 -118.370703 118 5858ft 110kts
13-Mar-18 20:12 35.153817 -118.360380 118 5712ft 120kts
13-Mar-18 20:13 35.148287 -118.348088 118 5715ft 114kts
13-Mar-18 20:14 35.127776 -118.321618 137 5717ft 111kts
13-Mar-18 20:15 35.108220 -118.293970 115 5718ft 110kts
13-Mar-18 20:16 35.097215 -118.260083 112 5471ft 108kts
13-Mar-18 20:17 35.085332 -118.227229 116 4715ft 105kts
13-Mar-18 20:18 35.071630 -118.196177 115 3821ft 106kts
13-Mar-18 20:19 35.066286 -118.165841 75 3609ft 93kts
13-Mar-18 20:20 35.069586 -118.138272 89 3713ft 80kts
13-Mar-18 20:21 35.059116 -118.122769 179 3576ft 67kts
13-Mar-18 20:22 35.057044 -118.135937 305 3104ft 62kts
13-Mar-18 20:23 35.059178 -118.147667 266 2745ft 0kts
13-Mar-18 20:24 35.058480 -118.148674 220 2745ft 7kts

Navigation Log

Ident Type
Flight plan parsing failed, navigation log unavailable